sensor_id;sensor_type;location;lat;lon;timestamp;P1;durP1;ratioP1;P2;durP2;ratioP2
53062;SDS011;40529;52.172;10.548;2022-07-15T00:00:47;3.20;;;1.70;;
53062;SDS011;40529;52.172;10.548;2022-07-15T00:03:13;5.25;;;1.65;;
53062;SDS011;40529;52.172;10.548;2022-07-15T00:05:39;4.35;;;1.48;;
53062;SDS011;40529;52.172;10.548;2022-07-15T00:08:06;3.90;;;1.50;;
53062;SDS011;40529;52.172;10.548;2022-07-15T00:10:32;4.65;;;1.60;;
53062;SDS011;40529;52.172;10.548;2022-07-15T00:12:58;6.50;;;1.90;;
53062;SDS011;40529;52.172;10.548;2022-07-15T00:15:25;4.00;;;1.83;;
53062;SDS011;40529;52.172;10.548;2022-07-15T00:17:52;5.90;;;2.08;;
53062;SDS011;40529;52.172;10.548;2022-07-15T00:20:19;4.60;;;2.00;;
53062;SDS011;40529;52.172;10.548;2022-07-15T00:22:46;7.38;;;2.13;;
53062;SDS011;40529;52.172;10.548;2022-07-15T00:25:12;3.58;;;1.60;;
53062;SDS011;40529;52.172;10.548;2022-07-15T00:30:40;7.07;;;1.80;;
53062;SDS011;40529;52.172;10.548;2022-07-15T00:33:07;7.60;;;1.70;;
53062;SDS011;40529;52.172;10.548;2022-07-15T00:35:34;5.50;;;1.77;;
53062;SDS011;40529;52.172;10.548;2022-07-15T00:38:00;4.47;;;2.13;;
53062;SDS011;40529;52.172;10.548;2022-07-15T00:40:26;6.38;;;2.15;;
53062;SDS011;40529;52.172;10.548;2022-07-15T00:42:53;4.97;;;1.75;;
53062;SDS011;40529;52.172;10.548;2022-07-15T00:45:20;8.23;;;2.17;;
53062;SDS011;40529;52.172;10.548;2022-07-15T00:47:50;3.95;;;1.80;;
53062;SDS011;40529;52.172;10.548;2022-07-15T00:50:17;5.97;;;1.83;;
53062;SDS011;40529;52.172;10.548;2022-07-15T00:52:45;5.78;;;2.35;;
53062;SDS011;40529;52.172;10.548;2022-07-15T00:55:12;6.13;;;1.70;;
53062;SDS011;40529;52.172;10.548;2022-07-15T00:57:39;7.55;;;2.30;;
53062;SDS011;40529;52.172;10.548;2022-07-15T01:00:06;7.00;;;2.42;;
53062;SDS011;40529;52.172;10.548;2022-07-15T01:02:35;5.82;;;1.90;;
53062;SDS011;40529;52.172;10.548;2022-07-15T01:05:01;5.38;;;1.77;;
53062;SDS011;40529;52.172;10.548;2022-07-15T01:07:29;4.47;;;1.80;;
53062;SDS011;40529;52.172;10.548;2022-07-15T01:09:55;5.60;;;1.90;;
53062;SDS011;40529;52.172;10.548;2022-07-15T01:12:21;6.40;;;2.05;;
53062;SDS011;40529;52.172;10.548;2022-07-15T01:14:47;8.65;;;2.33;;
53062;SDS011;40529;52.172;10.548;2022-07-15T01:17:15;8.05;;;2.10;;
53062;SDS011;40529;52.172;10.548;2022-07-15T01:19:41;7.20;;;1.77;;
53062;SDS011;40529;52.172;10.548;2022-07-15T01:22:07;3.88;;;1.67;;
53062;SDS011;40529;52.172;10.548;2022-07-15T01:24:33;6.25;;;2.00;;
53062;SDS011;40529;52.172;10.548;2022-07-15T01:27:00;3.95;;;1.67;;
53062;SDS011;40529;52.172;10.548;2022-07-15T01:29:27;6.28;;;1.98;;
53062;SDS011;40529;52.172;10.548;2022-07-15T01:31:53;5.45;;;1.70;;
53062;SDS011;40529;52.172;10.548;2022-07-15T01:34:19;5.78;;;1.85;;
53062;SDS011;40529;52.172;10.548;2022-07-15T01:36:45;4.28;;;1.70;;
53062;SDS011;40529;52.172;10.548;2022-07-15T01:39:11;4.38;;;1.83;;
53062;SDS011;40529;52.172;10.548;2022-07-15T01:41:37;5.07;;;2.10;;
53062;SDS011;40529;52.172;10.548;2022-07-15T01:44:03;4.15;;;1.90;;
53062;SDS011;40529;52.172;10.548;2022-07-15T01:46:29;6.68;;;1.95;;
53062;SDS011;40529;52.172;10.548;2022-07-15T01:48:56;4.30;;;2.10;;
53062;SDS011;40529;52.172;10.548;2022-07-15T01:51:41;5.32;;;1.90;;
53062;SDS011;40529;52.172;10.548;2022-07-15T01:54:07;6.97;;;1.70;;
53062;SDS011;40529;52.172;10.548;2022-07-15T01:56:33;5.93;;;1.90;;
53062;SDS011;40529;52.172;10.548;2022-07-15T01:59:01;5.32;;;1.80;;
53062;SDS011;40529;52.172;10.548;2022-07-15T02:01:27;7.43;;;1.75;;
53062;SDS011;40529;52.172;10.548;2022-07-15T02:03:53;5.78;;;1.77;;
53062;SDS011;40529;52.172;10.548;2022-07-15T02:06:19;5.03;;;2.72;;
53062;SDS011;40529;52.172;10.548;2022-07-15T02:08:45;4.75;;;1.73;;
53062;SDS011;40529;52.172;10.548;2022-07-15T02:11:11;6.57;;;2.00;;
53062;SDS011;40529;52.172;10.548;2022-07-15T02:13:37;4.50;;;1.45;;
53062;SDS011;40529;52.172;10.548;2022-07-15T02:16:03;2.97;;;1.70;;
53062;SDS011;40529;52.172;10.548;2022-07-15T02:18:29;5.60;;;1.92;;
53062;SDS011;40529;52.172;10.548;2022-07-15T02:20:55;4.18;;;1.58;;
53062;SDS011;40529;52.172;10.548;2022-07-15T02:23:21;5.95;;;1.92;;
53062;SDS011;40529;52.172;10.548;2022-07-15T02:25:48;6.80;;;2.22;;
53062;SDS011;40529;52.172;10.548;2022-07-15T02:28:14;4.93;;;2.00;;
53062;SDS011;40529;52.172;10.548;2022-07-15T02:30:41;7.03;;;2.47;;
53062;SDS011;40529;52.172;10.548;2022-07-15T02:33:08;8.20;;;2.40;;
53062;SDS011;40529;52.172;10.548;2022-07-15T02:35:34;10.95;;;3.00;;
53062;SDS011;40529;52.172;10.548;2022-07-15T02:38:00;5.72;;;2.85;;
53062;SDS011;40529;52.172;10.548;2022-07-15T02:40:27;7.70;;;2.92;;
53062;SDS011;40529;52.172;10.548;2022-07-15T02:42:54;9.43;;;2.83;;
53062;SDS011;40529;52.172;10.548;2022-07-15T02:45:22;12.13;;;3.50;;
53062;SDS011;40529;52.172;10.548;2022-07-15T02:47:49;8.27;;;2.88;;
53062;SDS011;40529;52.172;10.548;2022-07-15T02:50:15;8.70;;;2.92;;
53062;SDS011;40529;52.172;10.548;2022-07-15T02:52:41;3.58;;;2.30;;
53062;SDS011;40529;52.172;10.548;2022-07-15T02:55:08;4.30;;;2.33;;
53062;SDS011;40529;52.172;10.548;2022-07-15T02:57:35;7.85;;;2.60;;
53062;SDS011;40529;52.172;10.548;2022-07-15T03:00:02;5.63;;;2.78;;
53062;SDS011;40529;52.172;10.548;2022-07-15T03:02:28;6.53;;;2.40;;
53062;SDS011;40529;52.172;10.548;2022-07-15T03:04:55;5.82;;;2.30;;
53062;SDS011;40529;52.172;10.548;2022-07-15T03:07:21;8.30;;;2.67;;
53062;SDS011;40529;52.172;10.548;2022-07-15T03:09:47;7.38;;;2.60;;
53062;SDS011;40529;52.172;10.548;2022-07-15T03:12:14;6.28;;;2.30;;
53062;SDS011;40529;52.172;10.548;2022-07-15T03:14:40;5.18;;;1.63;;
53062;SDS011;40529;52.172;10.548;2022-07-15T03:17:06;9.75;;;2.38;;
53062;SDS011;40529;52.172;10.548;2022-07-15T03:19:32;6.80;;;2.40;;
53062;SDS011;40529;52.172;10.548;2022-07-15T03:21:58;8.82;;;2.10;;
53062;SDS011;40529;52.172;10.548;2022-07-15T03:24:25;6.78;;;2.28;;
53062;SDS011;40529;52.172;10.548;2022-07-15T03:26:51;6.85;;;2.35;;
53062;SDS011;40529;52.172;10.548;2022-07-15T03:29:17;10.10;;;2.40;;
53062;SDS011;40529;52.172;10.548;2022-07-15T03:31:43;5.93;;;2.33;;
53062;SDS011;40529;52.172;10.548;2022-07-15T03:34:09;9.98;;;2.47;;
53062;SDS011;40529;52.172;10.548;2022-07-15T03:36:36;6.10;;;2.50;;
53062;SDS011;40529;52.172;10.548;2022-07-15T03:39:02;8.38;;;2.50;;
53062;SDS011;40529;52.172;10.548;2022-07-15T03:41:28;8.23;;;2.72;;
53062;SDS011;40529;52.172;10.548;2022-07-15T03:43:55;7.97;;;2.80;;
53062;SDS011;40529;52.172;10.548;2022-07-15T03:46:21;7.10;;;2.50;;
53062;SDS011;40529;52.172;10.548;2022-07-15T03:48:47;10.35;;;2.83;;
53062;SDS011;40529;52.172;10.548;2022-07-15T03:51:14;7.25;;;2.60;;
53062;SDS011;40529;52.172;10.548;2022-07-15T03:53:40;5.43;;;2.97;;
53062;SDS011;40529;52.172;10.548;2022-07-15T03:56:06;6.78;;;2.45;;
53062;SDS011;40529;52.172;10.548;2022-07-15T03:58:32;9.20;;;2.72;;
53062;SDS011;40529;52.172;10.548;2022-07-15T04:00:58;7.13;;;2.60;;
53062;SDS011;40529;52.172;10.548;2022-07-15T04:03:24;11.50;;;3.15;;
53062;SDS011;40529;52.172;10.548;2022-07-15T04:05:50;6.95;;;2.95;;
53062;SDS011;40529;52.172;10.548;2022-07-15T04:08:16;7.40;;;2.45;;
53062;SDS011;40529;52.172;10.548;2022-07-15T04:10:42;6.85;;;2.40;;
53062;SDS011;40529;52.172;10.548;2022-07-15T04:13:08;10.10;;;2.78;;
53062;SDS011;40529;52.172;10.548;2022-07-15T04:15:34;8.98;;;2.92;;
53062;SDS011;40529;52.172;10.548;2022-07-15T04:18:00;10.32;;;2.33;;
53062;SDS011;40529;52.172;10.548;2022-07-15T04:20:27;8.27;;;2.78;;
53062;SDS011;40529;52.172;10.548;2022-07-15T04:22:53;9.07;;;2.50;;
53062;SDS011;40529;52.172;10.548;2022-07-15T04:25:19;10.10;;;2.50;;
53062;SDS011;40529;52.172;10.548;2022-07-15T04:27:46;15.73;;;2.78;;
53062;SDS011;40529;52.172;10.548;2022-07-15T04:30:13;8.07;;;2.35;;
53062;SDS011;40529;52.172;10.548;2022-07-15T04:32:39;7.88;;;2.67;;
53062;SDS011;40529;52.172;10.548;2022-07-15T04:35:05;5.50;;;2.30;;
53062;SDS011;40529;52.172;10.548;2022-07-15T04:37:32;7.90;;;2.50;;
53062;SDS011;40529;52.172;10.548;2022-07-15T04:39:58;10.13;;;2.38;;
53062;SDS011;40529;52.172;10.548;2022-07-15T04:42:24;8.90;;;2.10;;
53062;SDS011;40529;52.172;10.548;2022-07-15T04:44:50;13.68;;;2.53;;
53062;SDS011;40529;52.172;10.548;2022-07-15T04:47:16;6.07;;;1.52;;
53062;SDS011;40529;52.172;10.548;2022-07-15T04:49:42;7.30;;;1.85;;
53062;SDS011;40529;52.172;10.548;2022-07-15T04:52:27;10.63;;;2.10;;
53062;SDS011;40529;52.172;10.548;2022-07-15T04:54:55;7.68;;;2.00;;
53062;SDS011;40529;52.172;10.548;2022-07-15T04:57:22;6.07;;;1.70;;
53062;SDS011;40529;52.172;10.548;2022-07-15T04:59:48;10.75;;;1.80;;
53062;SDS011;40529;52.172;10.548;2022-07-15T05:02:14;10.65;;;2.30;;
53062;SDS011;40529;52.172;10.548;2022-07-15T05:04:40;6.80;;;1.83;;
53062;SDS011;40529;52.172;10.548;2022-07-15T05:07:07;6.47;;;1.73;;
53062;SDS011;40529;52.172;10.548;2022-07-15T05:09:33;8.02;;;1.65;;
53062;SDS011;40529;52.172;10.548;2022-07-15T05:11:59;10.20;;;1.73;;
53062;SDS011;40529;52.172;10.548;2022-07-15T05:14:25;8.48;;;2.08;;
53062;SDS011;40529;52.172;10.548;2022-07-15T05:16:51;9.95;;;2.00;;
53062;SDS011;40529;52.172;10.548;2022-07-15T05:19:17;12.35;;;2.00;;
53062;SDS011;40529;52.172;10.548;2022-07-15T05:21:43;7.88;;;1.50;;
53062;SDS011;40529;52.172;10.548;2022-07-15T05:24:09;7.78;;;2.13;;
53062;SDS011;40529;52.172;10.548;2022-07-15T05:26:36;6.43;;;1.40;;
53062;SDS011;40529;52.172;10.548;2022-07-15T05:29:02;11.35;;;1.67;;
53062;SDS011;40529;52.172;10.548;2022-07-15T05:31:28;14.20;;;2.17;;
53062;SDS011;40529;52.172;10.548;2022-07-15T05:33:54;13.95;;;2.03;;
53062;SDS011;40529;52.172;10.548;2022-07-15T05:36:20;14.98;;;1.90;;
53062;SDS011;40529;52.172;10.548;2022-07-15T05:38:47;14.98;;;2.13;;
53062;SDS011;40529;52.172;10.548;2022-07-15T05:41:13;13.77;;;1.83;;
53062;SDS011;40529;52.172;10.548;2022-07-15T05:43:38;8.32;;;1.65;;
53062;SDS011;40529;52.172;10.548;2022-07-15T05:46:05;7.90;;;1.67;;
53062;SDS011;40529;52.172;10.548;2022-07-15T05:48:31;8.70;;;1.58;;
53062;SDS011;40529;52.172;10.548;2022-07-15T05:50:57;12.63;;;1.40;;
53062;SDS011;40529;52.172;10.548;2022-07-15T05:53:23;6.97;;;1.55;;
53062;SDS011;40529;52.172;10.548;2022-07-15T05:55:50;8.95;;;1.55;;
53062;SDS011;40529;52.172;10.548;2022-07-15T05:58:17;6.55;;;1.40;;
53062;SDS011;40529;52.172;10.548;2022-07-15T06:00:43;8.20;;;1.60;;
53062;SDS011;40529;52.172;10.548;2022-07-15T06:03:09;7.32;;;1.60;;
53062;SDS011;40529;52.172;10.548;2022-07-15T06:05:35;7.93;;;1.40;;
53062;SDS011;40529;52.172;10.548;2022-07-15T06:08:01;12.43;;;1.70;;
53062;SDS011;40529;52.172;10.548;2022-07-15T06:10:27;9.70;;;1.70;;
53062;SDS011;40529;52.172;10.548;2022-07-15T06:12:53;7.30;;;1.67;;
53062;SDS011;40529;52.172;10.548;2022-07-15T06:15:19;7.78;;;1.48;;
53062;SDS011;40529;52.172;10.548;2022-07-15T06:17:45;8.75;;;2.00;;
53062;SDS011;40529;52.172;10.548;2022-07-15T06:20:11;5.82;;;1.23;;
53062;SDS011;40529;52.172;10.548;2022-07-15T06:22:38;8.10;;;1.50;;
53062;SDS011;40529;52.172;10.548;2022-07-15T06:25:04;6.55;;;1.55;;
53062;SDS011;40529;52.172;10.548;2022-07-15T06:27:30;6.70;;;1.05;;
53062;SDS011;40529;52.172;10.548;2022-07-15T06:29:57;9.75;;;1.67;;
53062;SDS011;40529;52.172;10.548;2022-07-15T06:32:23;7.05;;;1.45;;
53062;SDS011;40529;52.172;10.548;2022-07-15T06:34:49;7.95;;;1.70;;
53062;SDS011;40529;52.172;10.548;2022-07-15T06:37:15;8.50;;;1.67;;
53062;SDS011;40529;52.172;10.548;2022-07-15T06:39:42;8.70;;;2.05;;
53062;SDS011;40529;52.172;10.548;2022-07-15T06:42:08;10.30;;;1.88;;
53062;SDS011;40529;52.172;10.548;2022-07-15T06:44:35;8.68;;;1.13;;
53062;SDS011;40529;52.172;10.548;2022-07-15T06:47:01;7.05;;;1.58;;
53062;SDS011;40529;52.172;10.548;2022-07-15T06:49:28;7.90;;;1.65;;
53062;SDS011;40529;52.172;10.548;2022-07-15T06:51:55;5.68;;;1.33;;
53062;SDS011;40529;52.172;10.548;2022-07-15T06:54:21;7.22;;;1.33;;
53062;SDS011;40529;52.172;10.548;2022-07-15T06:56:46;7.95;;;1.55;;
53062;SDS011;40529;52.172;10.548;2022-07-15T06:59:13;9.85;;;1.40;;
53062;SDS011;40529;52.172;10.548;2022-07-15T07:01:39;8.10;;;1.77;;
53062;SDS011;40529;52.172;10.548;2022-07-15T07:04:05;6.90;;;1.20;;
53062;SDS011;40529;52.172;10.548;2022-07-15T07:06:32;7.88;;;1.50;;
53062;SDS011;40529;52.172;10.548;2022-07-15T07:08:58;10.60;;;1.67;;
53062;SDS011;40529;52.172;10.548;2022-07-15T07:11:24;11.95;;;1.42;;
53062;SDS011;40529;52.172;10.548;2022-07-15T07:13:50;9.30;;;1.50;;
53062;SDS011;40529;52.172;10.548;2022-07-15T07:16:16;5.10;;;1.10;;
53062;SDS011;40529;52.172;10.548;2022-07-15T07:18:42;8.60;;;1.40;;
53062;SDS011;40529;52.172;10.548;2022-07-15T07:21:10;8.20;;;1.45;;
53062;SDS011;40529;52.172;10.548;2022-07-15T07:23:37;7.63;;;1.45;;
53062;SDS011;40529;52.172;10.548;2022-07-15T07:26:05;7.63;;;1.02;;
53062;SDS011;40529;52.172;10.548;2022-07-15T07:28:31;7.97;;;1.33;;
53062;SDS011;40529;52.172;10.548;2022-07-15T07:30:58;6.18;;;1.20;;
53062;SDS011;40529;52.172;10.548;2022-07-15T07:33:24;4.95;;;1.02;;
53062;SDS011;40529;52.172;10.548;2022-07-15T07:35:50;5.60;;;0.93;;
53062;SDS011;40529;52.172;10.548;2022-07-15T07:38:16;6.47;;;1.13;;
53062;SDS011;40529;52.172;10.548;2022-07-15T07:40:43;9.57;;;1.40;;
53062;SDS011;40529;52.172;10.548;2022-07-15T07:43:12;5.78;;;1.38;;
53062;SDS011;40529;52.172;10.548;2022-07-15T07:45:38;6.60;;;1.27;;
53062;SDS011;40529;52.172;10.548;2022-07-15T07:48:04;6.40;;;1.27;;
53062;SDS011;40529;52.172;10.548;2022-07-15T07:50:30;5.53;;;1.00;;
53062;SDS011;40529;52.172;10.548;2022-07-15T07:52:56;5.68;;;0.90;;
53062;SDS011;40529;52.172;10.548;2022-07-15T07:55:22;8.05;;;1.63;;
53062;SDS011;40529;52.172;10.548;2022-07-15T07:57:49;8.93;;;2.00;;
53062;SDS011;40529;52.172;10.548;2022-07-15T08:00:15;8.95;;;1.13;;
53062;SDS011;40529;52.172;10.548;2022-07-15T08:02:42;3.38;;;1.00;;
53062;SDS011;40529;52.172;10.548;2022-07-15T08:05:08;3.78;;;0.70;;
53062;SDS011;40529;52.172;10.548;2022-07-15T08:07:35;4.75;;;0.70;;
53062;SDS011;40529;52.172;10.548;2022-07-15T08:10:01;3.75;;;1.42;;
53062;SDS011;40529;52.172;10.548;2022-07-15T08:12:27;5.10;;;0.85;;
53062;SDS011;40529;52.172;10.548;2022-07-15T08:14:53;3.42;;;0.70;;
53062;SDS011;40529;52.172;10.548;2022-07-15T08:17:20;4.43;;;0.80;;
53062;SDS011;40529;52.172;10.548;2022-07-15T08:19:46;3.75;;;0.85;;
53062;SDS011;40529;52.172;10.548;2022-07-15T08:22:12;6.30;;;0.93;;
53062;SDS011;40529;52.172;10.548;2022-07-15T08:24:39;5.80;;;1.00;;
53062;SDS011;40529;52.172;10.548;2022-07-15T08:27:05;4.78;;;0.65;;
53062;SDS011;40529;52.172;10.548;2022-07-15T08:29:31;2.90;;;0.77;;
53062;SDS011;40529;52.172;10.548;2022-07-15T08:31:57;4.65;;;1.05;;
53062;SDS011;40529;52.172;10.548;2022-07-15T08:34:23;2.15;;;0.65;;
53062;SDS011;40529;52.172;10.548;2022-07-15T08:36:49;5.15;;;0.70;;
53062;SDS011;40529;52.172;10.548;2022-07-15T08:39:15;5.97;;;0.70;;
53062;SDS011;40529;52.172;10.548;2022-07-15T08:41:41;2.80;;;0.73;;
53062;SDS011;40529;52.172;10.548;2022-07-15T08:44:07;2.95;;;0.90;;
53062;SDS011;40529;52.172;10.548;2022-07-15T08:46:34;6.32;;;0.88;;
53062;SDS011;40529;52.172;10.548;2022-07-15T08:49:02;3.40;;;0.52;;
53062;SDS011;40529;52.172;10.548;2022-07-15T08:51:29;2.17;;;0.50;;
53062;SDS011;40529;52.172;10.548;2022-07-15T08:53:56;5.88;;;1.00;;
53062;SDS011;40529;52.172;10.548;2022-07-15T08:56:23;3.13;;;0.57;;
53062;SDS011;40529;52.172;10.548;2022-07-15T08:58:50;2.80;;;0.90;;
53062;SDS011;40529;52.172;10.548;2022-07-15T09:01:16;2.83;;;0.60;;
53062;SDS011;40529;52.172;10.548;2022-07-15T09:03:42;2.22;;;0.60;;
53062;SDS011;40529;52.172;10.548;2022-07-15T09:06:08;4.65;;;0.80;;
53062;SDS011;40529;52.172;10.548;2022-07-15T09:08:34;4.03;;;0.60;;
53062;SDS011;40529;52.172;10.548;2022-07-15T09:11:00;2.22;;;0.50;;
53062;SDS011;40529;52.172;10.548;2022-07-15T09:15:57;3.20;;;0.47;;
53062;SDS011;40529;52.172;10.548;2022-07-15T09:18:25;2.42;;;0.55;;
53062;SDS011;40529;52.172;10.548;2022-07-15T09:20:51;3.45;;;0.50;;
53062;SDS011;40529;52.172;10.548;2022-07-15T09:23:22;4.13;;;0.50;;
53062;SDS011;40529;52.172;10.548;2022-07-15T09:25:55;2.22;;;0.40;;
53062;SDS011;40529;52.172;10.548;2022-07-15T09:28:21;2.85;;;0.50;;
53062;SDS011;40529;52.172;10.548;2022-07-15T09:31:00;2.20;;;0.80;;
53062;SDS011;40529;52.172;10.548;2022-07-15T09:33:44;2.72;;;0.75;;
53062;SDS011;40529;52.172;10.548;2022-07-15T09:36:18;2.70;;;0.75;;
53062;SDS011;40529;52.172;10.548;2022-07-15T09:38:52;6.47;;;0.80;;
53062;SDS011;40529;52.172;10.548;2022-07-15T09:44:08;1.33;;;0.50;;
53062;SDS011;40529;52.172;10.548;2022-07-15T09:46:48;4.30;;;0.70;;
53062;SDS011;40529;52.172;10.548;2022-07-15T09:51:50;5.30;;;0.80;;
53062;SDS011;40529;52.172;10.548;2022-07-15T09:54:17;3.15;;;0.60;;
53062;SDS011;40529;52.172;10.548;2022-07-15T09:56:47;2.13;;;0.60;;
53062;SDS011;40529;52.172;10.548;2022-07-15T09:59:13;4.05;;;1.10;;
53062;SDS011;40529;52.172;10.548;2022-07-15T10:01:40;2.72;;;0.85;;
53062;SDS011;40529;52.172;10.548;2022-07-15T10:04:06;4.60;;;0.75;;
53062;SDS011;40529;52.172;10.548;2022-07-15T10:06:33;1.75;;;0.50;;
53062;SDS011;40529;52.172;10.548;2022-07-15T10:09:06;2.90;;;0.60;;
53062;SDS011;40529;52.172;10.548;2022-07-15T10:11:35;1.13;;;0.32;;
53062;SDS011;40529;52.172;10.548;2022-07-15T10:14:08;3.90;;;0.60;;
53062;SDS011;40529;52.172;10.548;2022-07-15T10:16:42;3.70;;;0.43;;
53062;SDS011;40529;52.172;10.548;2022-07-15T10:24:25;4.97;;;0.60;;
53062;SDS011;40529;52.172;10.548;2022-07-15T10:29:21;3.03;;;0.60;;
53062;SDS011;40529;52.172;10.548;2022-07-15T10:31:55;1.05;;;0.60;;
53062;SDS011;40529;52.172;10.548;2022-07-15T10:34:21;2.20;;;0.50;;
53062;SDS011;40529;52.172;10.548;2022-07-15T10:39:22;5.03;;;0.60;;
53062;SDS011;40529;52.172;10.548;2022-07-15T10:41:53;3.50;;;0.80;;
53062;SDS011;40529;52.172;10.548;2022-07-15T10:44:22;4.20;;;0.82;;
53062;SDS011;40529;52.172;10.548;2022-07-15T10:47:07;5.18;;;0.70;;
53062;SDS011;40529;52.172;10.548;2022-07-15T10:49:34;2.83;;;0.60;;
53062;SDS011;40529;52.172;10.548;2022-07-15T10:54:42;2.95;;;0.52;;
53062;SDS011;40529;52.172;10.548;2022-07-15T10:57:09;2.03;;;0.50;;
53062;SDS011;40529;52.172;10.548;2022-07-15T10:59:56;2.25;;;0.40;;
53062;SDS011;40529;52.172;10.548;2022-07-15T11:02:23;5.00;;;0.68;;
53062;SDS011;40529;52.172;10.548;2022-07-15T11:04:49;2.95;;;0.60;;
53062;SDS011;40529;52.172;10.548;2022-07-15T11:17:36;2.25;;;0.47;;
53062;SDS011;40529;52.172;10.548;2022-07-15T11:20:10;3.15;;;0.63;;
53062;SDS011;40529;52.172;10.548;2022-07-15T11:22:38;2.58;;;0.55;;
53062;SDS011;40529;52.172;10.548;2022-07-15T11:25:04;3.03;;;0.50;;
53062;SDS011;40529;52.172;10.548;2022-07-15T11:27:31;4.47;;;0.70;;
53062;SDS011;40529;52.172;10.548;2022-07-15T11:29:58;4.50;;;0.60;;
53062;SDS011;40529;52.172;10.548;2022-07-15T11:32:27;2.88;;;0.52;;
53062;SDS011;40529;52.172;10.548;2022-07-15T11:34:54;3.65;;;0.55;;
53062;SDS011;40529;52.172;10.548;2022-07-15T11:37:24;2.20;;;0.52;;
53062;SDS011;40529;52.172;10.548;2022-07-15T11:42:20;2.30;;;0.50;;
53062;SDS011;40529;52.172;10.548;2022-07-15T11:45:05;2.38;;;0.70;;
53062;SDS011;40529;52.172;10.548;2022-07-15T11:47:31;3.15;;;0.55;;
53062;SDS011;40529;52.172;10.548;2022-07-15T11:49:58;2.67;;;0.60;;
53062;SDS011;40529;52.172;10.548;2022-07-15T11:52:25;2.78;;;0.60;;
53062;SDS011;40529;52.172;10.548;2022-07-15T11:54:51;2.58;;;0.93;;
53062;SDS011;40529;52.172;10.548;2022-07-15T11:57:17;3.45;;;0.55;;
53062;SDS011;40529;52.172;10.548;2022-07-15T11:59:51;2.88;;;0.70;;
53062;SDS011;40529;52.172;10.548;2022-07-15T12:02:17;4.32;;;0.80;;
53062;SDS011;40529;52.172;10.548;2022-07-15T12:04:43;2.08;;;0.50;;
53062;SDS011;40529;52.172;10.548;2022-07-15T12:07:10;2.58;;;0.50;;
53062;SDS011;40529;52.172;10.548;2022-07-15T12:12:05;1.70;;;0.40;;
53062;SDS011;40529;52.172;10.548;2022-07-15T12:14:32;2.55;;;0.63;;
53062;SDS011;40529;52.172;10.548;2022-07-15T12:16:58;2.45;;;0.63;;
53062;SDS011;40529;52.172;10.548;2022-07-15T12:19:25;1.95;;;0.60;;
53062;SDS011;40529;52.172;10.548;2022-07-15T12:21:52;4.50;;;0.55;;
53062;SDS011;40529;52.172;10.548;2022-07-15T12:24:20;3.40;;;0.70;;
53062;SDS011;40529;52.172;10.548;2022-07-15T12:29:20;3.95;;;0.80;;
53062;SDS011;40529;52.172;10.548;2022-07-15T12:37:09;4.03;;;0.65;;
53062;SDS011;40529;52.172;10.548;2022-07-15T12:39:52;4.63;;;0.60;;
53062;SDS011;40529;52.172;10.548;2022-07-15T12:42:18;2.08;;;0.57;;
53062;SDS011;40529;52.172;10.548;2022-07-15T12:44:44;1.52;;;0.40;;
53062;SDS011;40529;52.172;10.548;2022-07-15T12:47:10;3.35;;;0.60;;
53062;SDS011;40529;52.172;10.548;2022-07-15T12:49:50;1.73;;;0.63;;
53062;SDS011;40529;52.172;10.548;2022-07-15T12:54:42;1.77;;;0.52;;
53062;SDS011;40529;52.172;10.548;2022-07-15T12:57:18;3.83;;;0.70;;
53062;SDS011;40529;52.172;10.548;2022-07-15T12:59:51;3.70;;;0.40;;
53062;SDS011;40529;52.172;10.548;2022-07-15T13:02:17;3.15;;;0.63;;
53062;SDS011;40529;52.172;10.548;2022-07-15T13:04:43;3.15;;;0.60;;
53062;SDS011;40529;52.172;10.548;2022-07-15T13:07:09;2.78;;;0.32;;
53062;SDS011;40529;52.172;10.548;2022-07-15T13:09:35;3.50;;;0.38;;
53062;SDS011;40529;52.172;10.548;2022-07-15T13:12:01;2.72;;;0.47;;
53062;SDS011;40529;52.172;10.548;2022-07-15T13:14:28;1.85;;;0.40;;
53062;SDS011;40529;52.172;10.548;2022-07-15T13:16:54;5.10;;;0.70;;
53062;SDS011;40529;52.172;10.548;2022-07-15T13:19:20;1.27;;;0.35;;
53062;SDS011;40529;52.172;10.548;2022-07-15T13:21:46;1.45;;;0.45;;
53062;SDS011;40529;52.172;10.548;2022-07-15T13:24:12;2.28;;;0.47;;
53062;SDS011;40529;52.172;10.548;2022-07-15T13:26:38;4.75;;;0.70;;
53062;SDS011;40529;52.172;10.548;2022-07-15T13:29:04;0.95;;;0.40;;
53062;SDS011;40529;52.172;10.548;2022-07-15T13:31:30;3.35;;;0.60;;
53062;SDS011;40529;52.172;10.548;2022-07-15T13:33:56;1.35;;;0.52;;
53062;SDS011;40529;52.172;10.548;2022-07-15T13:36:21;3.42;;;0.50;;
53062;SDS011;40529;52.172;10.548;2022-07-15T13:38:48;2.83;;;0.60;;
53062;SDS011;40529;52.172;10.548;2022-07-15T13:41:14;3.78;;;0.80;;
53062;SDS011;40529;52.172;10.548;2022-07-15T13:43:41;1.92;;;0.70;;
53062;SDS011;40529;52.172;10.548;2022-07-15T13:46:08;2.08;;;0.60;;
53062;SDS011;40529;52.172;10.548;2022-07-15T13:48:34;2.22;;;0.63;;
53062;SDS011;40529;52.172;10.548;2022-07-15T13:51:00;3.00;;;0.60;;
53062;SDS011;40529;52.172;10.548;2022-07-15T13:53:45;2.13;;;0.52;;
53062;SDS011;40529;52.172;10.548;2022-07-15T13:56:11;2.75;;;0.70;;
53062;SDS011;40529;52.172;10.548;2022-07-15T13:58:37;3.55;;;0.90;;
53062;SDS011;40529;52.172;10.548;2022-07-15T14:01:03;2.55;;;0.60;;
53062;SDS011;40529;52.172;10.548;2022-07-15T14:03:29;0.80;;;0.47;;
53062;SDS011;40529;52.172;10.548;2022-07-15T14:05:55;4.68;;;0.75;;
53062;SDS011;40529;52.172;10.548;2022-07-15T14:08:21;2.72;;;0.43;;
53062;SDS011;40529;52.172;10.548;2022-07-15T14:10:47;1.98;;;0.55;;
53062;SDS011;40529;52.172;10.548;2022-07-15T14:13:13;3.38;;;0.65;;
53062;SDS011;40529;52.172;10.548;2022-07-15T14:15:39;2.58;;;0.70;;
53062;SDS011;40529;52.172;10.548;2022-07-15T14:18:05;5.22;;;0.70;;
53062;SDS011;40529;52.172;10.548;2022-07-15T14:20:32;2.78;;;0.93;;
53062;SDS011;40529;52.172;10.548;2022-07-15T14:22:58;3.15;;;0.55;;
53062;SDS011;40529;52.172;10.548;2022-07-15T14:25:24;2.47;;;0.60;;
53062;SDS011;40529;52.172;10.548;2022-07-15T14:27:50;2.05;;;0.40;;
53062;SDS011;40529;52.172;10.548;2022-07-15T14:30:17;3.13;;;0.60;;
53062;SDS011;40529;52.172;10.548;2022-07-15T14:32:43;3.50;;;0.40;;
53062;SDS011;40529;52.172;10.548;2022-07-15T14:35:10;2.03;;;0.57;;
53062;SDS011;40529;52.172;10.548;2022-07-15T14:37:36;1.70;;;0.50;;
53062;SDS011;40529;52.172;10.548;2022-07-15T14:40:03;2.38;;;0.65;;
53062;SDS011;40529;52.172;10.548;2022-07-15T14:42:29;2.50;;;0.40;;
53062;SDS011;40529;52.172;10.548;2022-07-15T14:44:55;2.63;;;0.52;;
53062;SDS011;40529;52.172;10.548;2022-07-15T14:47:21;2.05;;;0.43;;
53062;SDS011;40529;52.172;10.548;2022-07-15T14:49:47;2.53;;;0.60;;
53062;SDS011;40529;52.172;10.548;2022-07-15T14:52:13;2.25;;;0.52;;
53062;SDS011;40529;52.172;10.548;2022-07-15T14:54:40;4.13;;;0.60;;
53062;SDS011;40529;52.172;10.548;2022-07-15T14:57:06;0.60;;;0.38;;
53062;SDS011;40529;52.172;10.548;2022-07-15T14:59:32;1.38;;;0.40;;
53062;SDS011;40529;52.172;10.548;2022-07-15T15:02:02;1.90;;;0.50;;
53062;SDS011;40529;52.172;10.548;2022-07-15T15:04:28;2.60;;;0.40;;
53062;SDS011;40529;52.172;10.548;2022-07-15T15:06:54;2.78;;;0.50;;
53062;SDS011;40529;52.172;10.548;2022-07-15T15:09:20;1.55;;;0.40;;
53062;SDS011;40529;52.172;10.548;2022-07-15T15:11:46;1.25;;;0.50;;
53062;SDS011;40529;52.172;10.548;2022-07-15T15:14:12;1.73;;;0.50;;
53062;SDS011;40529;52.172;10.548;2022-07-15T15:16:38;4.78;;;0.70;;
53062;SDS011;40529;52.172;10.548;2022-07-15T15:19:04;1.58;;;0.50;;
53062;SDS011;40529;52.172;10.548;2022-07-15T15:21:30;1.17;;;0.40;;